sensor_id;sensor_type;location;lat;lon;timestamp;P1;durP1;ratioP1;P2;durP2;ratioP2
22219;SDS011;11279;48.364;10.904;2023-01-08T00:00:32;15.40;;;9.20;;
22219;SDS011;11279;48.364;10.904;2023-01-08T00:01:32;14.37;;;9.13;;
22219;SDS011;11279;48.364;10.904;2023-01-08T00:02:33;14.33;;;8.43;;
22219;SDS011;11279;48.364;10.904;2023-01-08T00:03:34;15.83;;;8.73;;
22219;SDS011;11279;48.364;10.904;2023-01-08T00:04:35;14.73;;;8.50;;
22219;SDS011;11279;48.364;10.904;2023-01-08T00:05:35;16.63;;;8.87;;
22219;SDS011;11279;48.364;10.904;2023-01-08T00:06:36;14.00;;;8.93;;
22219;SDS011;11279;48.364;10.904;2023-01-08T00:07:36;15.10;;;9.53;;
22219;SDS011;11279;48.364;10.904;2023-01-08T00:08:37;15.37;;;9.10;;
22219;SDS011;11279;48.364;10.904;2023-01-08T00:09:37;14.90;;;9.33;;
22219;SDS011;11279;48.364;10.904;2023-01-08T00:10:38;13.87;;;8.73;;
22219;SDS011;11279;48.364;10.904;2023-01-08T00:11:38;14.67;;;8.40;;
22219;SDS011;11279;48.364;10.904;2023-01-08T00:12:39;14.43;;;8.33;;
22219;SDS011;11279;48.364;10.904;2023-01-08T00:13:39;14.63;;;8.97;;
22219;SDS011;11279;48.364;10.904;2023-01-08T00:14:40;15.40;;;9.43;;
22219;SDS011;11279;48.364;10.904;2023-01-08T00:15:40;18.90;;;8.63;;
22219;SDS011;11279;48.364;10.904;2023-01-08T00:16:40;18.13;;;8.80;;
22219;SDS011;11279;48.364;10.904;2023-01-08T00:17:41;14.53;;;8.30;;
22219;SDS011;11279;48.364;10.904;2023-01-08T00:18:42;15.30;;;8.30;;
22219;SDS011;11279;48.364;10.904;2023-01-08T00:19:43;15.13;;;8.70;;
22219;SDS011;11279;48.364;10.904;2023-01-08T00:20:44;12.93;;;8.27;;
22219;SDS011;11279;48.364;10.904;2023-01-08T00:21:45;13.18;;;8.40;;
22219;SDS011;11279;48.364;10.904;2023-01-08T00:22:48;15.83;;;8.07;;
22219;SDS011;11279;48.364;10.904;2023-01-08T00:23:49;13.73;;;8.60;;
22219;SDS011;11279;48.364;10.904;2023-01-08T00:24:49;15.13;;;8.40;;
22219;SDS011;11279;48.364;10.904;2023-01-08T00:25:50;14.97;;;8.37;;
22219;SDS011;11279;48.364;10.904;2023-01-08T00:26:50;15.30;;;8.53;;
22219;SDS011;11279;48.364;10.904;2023-01-08T00:27:51;13.83;;;8.50;;
22219;SDS011;11279;48.364;10.904;2023-01-08T00:28:51;13.90;;;8.33;;
22219;SDS011;11279;48.364;10.904;2023-01-08T00:29:51;15.07;;;8.73;;
22219;SDS011;11279;48.364;10.904;2023-01-08T00:30:52;13.47;;;8.60;;
22219;SDS011;11279;48.364;10.904;2023-01-08T00:31:52;13.37;;;7.90;;
22219;SDS011;11279;48.364;10.904;2023-01-08T00:32:53;14.73;;;8.60;;
22219;SDS011;11279;48.364;10.904;2023-01-08T00:33:53;16.70;;;9.60;;
22219;SDS011;11279;48.364;10.904;2023-01-08T00:34:53;14.47;;;8.67;;
22219;SDS011;11279;48.364;10.904;2023-01-08T00:35:55;14.10;;;8.85;;
22219;SDS011;11279;48.364;10.904;2023-01-08T00:36:55;15.10;;;8.13;;
22219;SDS011;11279;48.364;10.904;2023-01-08T00:37:56;16.57;;;8.70;;
22219;SDS011;11279;48.364;10.904;2023-01-08T00:38:57;15.33;;;8.37;;
22219;SDS011;11279;48.364;10.904;2023-01-08T00:39:57;17.92;;;8.52;;
22219;SDS011;11279;48.364;10.904;2023-01-08T00:40:58;14.27;;;8.17;;
22219;SDS011;11279;48.364;10.904;2023-01-08T00:41:58;14.13;;;8.17;;
22219;SDS011;11279;48.364;10.904;2023-01-08T00:42:59;13.07;;;7.57;;
22219;SDS011;11279;48.364;10.904;2023-01-08T00:43:59;15.37;;;8.37;;
22219;SDS011;11279;48.364;10.904;2023-01-08T00:45:00;14.97;;;9.00;;
22219;SDS011;11279;48.364;10.904;2023-01-08T00:46:00;14.17;;;8.00;;
22219;SDS011;11279;48.364;10.904;2023-01-08T00:47:00;14.93;;;7.97;;
22219;SDS011;11279;48.364;10.904;2023-01-08T00:48:01;14.23;;;8.00;;
22219;SDS011;11279;48.364;10.904;2023-01-08T00:49:01;14.10;;;8.13;;
22219;SDS011;11279;48.364;10.904;2023-01-08T00:50:02;14.17;;;8.03;;
22219;SDS011;11279;48.364;10.904;2023-01-08T00:51:03;15.63;;;8.10;;
22219;SDS011;11279;48.364;10.904;2023-01-08T00:52:04;13.18;;;7.50;;
22219;SDS011;11279;48.364;10.904;2023-01-08T00:53:04;13.13;;;7.77;;
22219;SDS011;11279;48.364;10.904;2023-01-08T00:54:05;13.50;;;8.00;;
22219;SDS011;11279;48.364;10.904;2023-01-08T00:55:05;17.20;;;8.73;;
22219;SDS011;11279;48.364;10.904;2023-01-08T00:56:07;14.80;;;8.27;;
22219;SDS011;11279;48.364;10.904;2023-01-08T00:57:08;16.35;;;7.85;;
22219;SDS011;11279;48.364;10.904;2023-01-08T00:58:09;12.47;;;7.70;;
22219;SDS011;11279;48.364;10.904;2023-01-08T00:59:10;13.40;;;8.02;;
22219;SDS011;11279;48.364;10.904;2023-01-08T01:00:12;12.87;;;7.67;;
22219;SDS011;11279;48.364;10.904;2023-01-08T01:01:14;13.13;;;7.88;;
22219;SDS011;11279;48.364;10.904;2023-01-08T01:02:15;15.70;;;7.90;;
22219;SDS011;11279;48.364;10.904;2023-01-08T01:03:15;14.30;;;7.87;;
22219;SDS011;11279;48.364;10.904;2023-01-08T01:04:15;13.90;;;7.57;;
22219;SDS011;11279;48.364;10.904;2023-01-08T01:05:16;13.17;;;7.43;;
22219;SDS011;11279;48.364;10.904;2023-01-08T01:06:18;12.60;;;6.95;;
22219;SDS011;11279;48.364;10.904;2023-01-08T01:07:18;12.93;;;8.00;;
22219;SDS011;11279;48.364;10.904;2023-01-08T01:08:19;13.53;;;7.50;;
22219;SDS011;11279;48.364;10.904;2023-01-08T01:09:19;14.63;;;8.13;;
22219;SDS011;11279;48.364;10.904;2023-01-08T01:10:20;12.13;;;6.87;;
22219;SDS011;11279;48.364;10.904;2023-01-08T01:11:22;13.60;;;7.30;;
22219;SDS011;11279;48.364;10.904;2023-01-08T01:12:23;14.65;;;7.18;;
22219;SDS011;11279;48.364;10.904;2023-01-08T01:13:24;13.00;;;7.27;;
22219;SDS011;11279;48.364;10.904;2023-01-08T01:14:24;10.97;;;6.63;;
22219;SDS011;11279;48.364;10.904;2023-01-08T01:15:24;12.40;;;6.73;;
22219;SDS011;11279;48.364;10.904;2023-01-08T01:16:25;12.03;;;7.20;;
22219;SDS011;11279;48.364;10.904;2023-01-08T01:17:25;14.03;;;7.50;;
22219;SDS011;11279;48.364;10.904;2023-01-08T01:18:26;10.97;;;6.63;;
22219;SDS011;11279;48.364;10.904;2023-01-08T01:19:26;13.97;;;7.90;;
22219;SDS011;11279;48.364;10.904;2023-01-08T01:20:27;11.37;;;6.30;;
22219;SDS011;11279;48.364;10.904;2023-01-08T01:21:28;12.97;;;6.53;;
22219;SDS011;11279;48.364;10.904;2023-01-08T01:22:29;12.88;;;7.18;;
22219;SDS011;11279;48.364;10.904;2023-01-08T01:23:30;13.20;;;6.30;;
22219;SDS011;11279;48.364;10.904;2023-01-08T01:24:30;13.07;;;7.03;;
22219;SDS011;11279;48.364;10.904;2023-01-08T01:25:35;12.17;;;6.90;;
22219;SDS011;11279;48.364;10.904;2023-01-08T01:26:36;12.15;;;6.80;;
22219;SDS011;11279;48.364;10.904;2023-01-08T01:27:36;12.43;;;6.60;;
22219;SDS011;11279;48.364;10.904;2023-01-08T01:28:37;11.27;;;6.57;;
22219;SDS011;11279;48.364;10.904;2023-01-08T01:29:37;18.50;;;7.67;;
22219;SDS011;11279;48.364;10.904;2023-01-08T01:30:37;13.87;;;7.07;;
22219;SDS011;11279;48.364;10.904;2023-01-08T01:31:38;12.23;;;6.43;;
22219;SDS011;11279;48.364;10.904;2023-01-08T01:32:39;11.88;;;6.40;;
22219;SDS011;11279;48.364;10.904;2023-01-08T01:33:39;10.53;;;6.07;;
22219;SDS011;11279;48.364;10.904;2023-01-08T01:34:40;12.13;;;7.03;;
22219;SDS011;11279;48.364;10.904;2023-01-08T01:35:41;12.47;;;6.87;;
22219;SDS011;11279;48.364;10.904;2023-01-08T01:36:41;11.07;;;6.33;;
22219;SDS011;11279;48.364;10.904;2023-01-08T01:37:42;14.37;;;6.67;;
22219;SDS011;11279;48.364;10.904;2023-01-08T01:38:42;10.97;;;6.33;;
22219;SDS011;11279;48.364;10.904;2023-01-08T01:39:47;12.15;;;6.78;;
22219;SDS011;11279;48.364;10.904;2023-01-08T01:40:47;11.80;;;6.30;;
22219;SDS011;11279;48.364;10.904;2023-01-08T01:41:48;10.40;;;5.80;;
22219;SDS011;11279;48.364;10.904;2023-01-08T01:42:48;12.17;;;6.83;;
22219;SDS011;11279;48.364;10.904;2023-01-08T01:43:49;11.13;;;6.70;;
22219;SDS011;11279;48.364;10.904;2023-01-08T01:44:49;12.63;;;6.23;;
22219;SDS011;11279;48.364;10.904;2023-01-08T01:45:50;10.10;;;6.03;;
22219;SDS011;11279;48.364;10.904;2023-01-08T01:46:50;10.57;;;6.60;;
22219;SDS011;11279;48.364;10.904;2023-01-08T01:47:56;11.17;;;5.87;;
22219;SDS011;11279;48.364;10.904;2023-01-08T01:48:59;11.15;;;6.40;;
22219;SDS011;11279;48.364;10.904;2023-01-08T01:50:22;10.68;;;5.82;;
22219;SDS011;11279;48.364;10.904;2023-01-08T01:51:28;10.38;;;5.97;;
22219;SDS011;11279;48.364;10.904;2023-01-08T01:52:32;10.18;;;5.90;;
22219;SDS011;11279;48.364;10.904;2023-01-08T01:53:36;10.85;;;5.97;;
22219;SDS011;11279;48.364;10.904;2023-01-08T01:54:36;10.20;;;5.37;;
22219;SDS011;11279;48.364;10.904;2023-01-08T01:55:37;9.63;;;5.40;;
22219;SDS011;11279;48.364;10.904;2023-01-08T01:56:40;9.23;;;5.38;;
22219;SDS011;11279;48.364;10.904;2023-01-08T01:57:43;8.80;;;5.25;;
22219;SDS011;11279;48.364;10.904;2023-01-08T01:58:48;8.80;;;5.03;;
22219;SDS011;11279;48.364;10.904;2023-01-08T01:59:48;12.13;;;5.30;;
22219;SDS011;11279;48.364;10.904;2023-01-08T02:00:50;9.97;;;5.00;;
22219;SDS011;11279;48.364;10.904;2023-01-08T02:01:50;11.18;;;5.85;;
22219;SDS011;11279;48.364;10.904;2023-01-08T02:02:51;13.30;;;5.50;;
22219;SDS011;11279;48.364;10.904;2023-01-08T02:03:52;8.87;;;4.97;;
22219;SDS011;11279;48.364;10.904;2023-01-08T02:04:52;10.47;;;5.60;;
22219;SDS011;11279;48.364;10.904;2023-01-08T02:06:09;11.90;;;6.33;;
22219;SDS011;11279;48.364;10.904;2023-01-08T02:07:32;9.48;;;5.25;;
22219;SDS011;11279;48.364;10.904;2023-01-08T02:08:54;10.48;;;5.10;;
22219;SDS011;11279;48.364;10.904;2023-01-08T02:10:02;9.82;;;5.22;;
22219;SDS011;11279;48.364;10.904;2023-01-08T02:11:10;10.30;;;5.43;;
22219;SDS011;11279;48.364;10.904;2023-01-08T02:12:18;9.27;;;5.28;;
22219;SDS011;11279;48.364;10.904;2023-01-08T02:13:28;10.93;;;5.53;;
22219;SDS011;11279;48.364;10.904;2023-01-08T02:14:39;9.00;;;4.80;;
22219;SDS011;11279;48.364;10.904;2023-01-08T02:15:48;9.32;;;4.93;;
22219;SDS011;11279;48.364;10.904;2023-01-08T02:16:59;10.48;;;4.90;;
22219;SDS011;11279;48.364;10.904;2023-01-08T02:18:09;9.18;;;5.10;;
22219;SDS011;11279;48.364;10.904;2023-01-08T02:19:13;9.40;;;4.95;;
22219;SDS011;11279;48.364;10.904;2023-01-08T02:20:23;8.98;;;4.85;;
22219;SDS011;11279;48.364;10.904;2023-01-08T02:23:45;9.00;;;4.72;;
22219;SDS011;11279;48.364;10.904;2023-01-08T02:24:55;9.82;;;4.97;;
22219;SDS011;11279;48.364;10.904;2023-01-08T02:27:24;8.30;;;4.65;;
22219;SDS011;11279;48.364;10.904;2023-01-08T02:28:27;9.15;;;4.95;;
22219;SDS011;11279;48.364;10.904;2023-01-08T02:29:28;8.75;;;4.88;;
22219;SDS011;11279;48.364;10.904;2023-01-08T02:30:29;10.93;;;5.20;;
22219;SDS011;11279;48.364;10.904;2023-01-08T02:31:30;8.70;;;4.83;;
22219;SDS011;11279;48.364;10.904;2023-01-08T02:32:32;9.85;;;5.40;;
22219;SDS011;11279;48.364;10.904;2023-01-08T02:33:35;8.00;;;5.25;;
22219;SDS011;11279;48.364;10.904;2023-01-08T02:34:35;10.83;;;5.13;;
22219;SDS011;11279;48.364;10.904;2023-01-08T02:35:37;9.33;;;5.40;;
22219;SDS011;11279;48.364;10.904;2023-01-08T02:36:43;8.75;;;5.05;;
22219;SDS011;11279;48.364;10.904;2023-01-08T02:37:45;10.75;;;5.03;;
22219;SDS011;11279;48.364;10.904;2023-01-08T02:38:54;11.27;;;5.67;;
22219;SDS011;11279;48.364;10.904;2023-01-08T02:40:13;10.00;;;5.47;;
22219;SDS011;11279;48.364;10.904;2023-01-08T02:41:41;8.20;;;4.68;;
22219;SDS011;11279;48.364;10.904;2023-01-08T02:43:47;8.77;;;4.80;;
22219;SDS011;11279;48.364;10.904;2023-01-08T02:45:53;8.73;;;5.00;;
22219;SDS011;11279;48.364;10.904;2023-01-08T02:46:56;8.93;;;4.80;;
22219;SDS011;11279;48.364;10.904;2023-01-08T02:48:03;10.10;;;5.45;;
22219;SDS011;11279;48.364;10.904;2023-01-08T02:49:11;10.68;;;5.25;;
22219;SDS011;11279;48.364;10.904;2023-01-08T02:50:14;10.48;;;5.53;;
22219;SDS011;11279;48.364;10.904;2023-01-08T02:52:23;8.85;;;4.60;;
22219;SDS011;11279;48.364;10.904;2023-01-08T02:53:30;9.60;;;5.30;;
22219;SDS011;11279;48.364;10.904;2023-01-08T02:54:36;7.80;;;4.40;;
22219;SDS011;11279;48.364;10.904;2023-01-08T02:55:37;10.10;;;5.63;;
22219;SDS011;11279;48.364;10.904;2023-01-08T02:56:43;10.07;;;5.25;;
22219;SDS011;11279;48.364;10.904;2023-01-08T02:57:45;9.60;;;4.65;;
22219;SDS011;11279;48.364;10.904;2023-01-08T02:58:46;8.37;;;4.90;;
22219;SDS011;11279;48.364;10.904;2023-01-08T02:59:48;9.82;;;5.18;;
22219;SDS011;11279;48.364;10.904;2023-01-08T03:00:49;8.18;;;5.05;;
22219;SDS011;11279;48.364;10.904;2023-01-08T03:01:50;8.77;;;4.70;;
22219;SDS011;11279;48.364;10.904;2023-01-08T03:02:53;7.65;;;4.60;;
22219;SDS011;11279;48.364;10.904;2023-01-08T03:04:12;10.35;;;4.95;;
22219;SDS011;11279;48.364;10.904;2023-01-08T03:05:20;8.68;;;5.00;;
22219;SDS011;11279;48.364;10.904;2023-01-08T03:06:22;10.15;;;4.82;;
22219;SDS011;11279;48.364;10.904;2023-01-08T03:07:23;7.45;;;4.50;;
22219;SDS011;11279;48.364;10.904;2023-01-08T03:08:23;11.00;;;5.13;;
22219;SDS011;11279;48.364;10.904;2023-01-08T03:09:24;10.03;;;5.17;;
22219;SDS011;11279;48.364;10.904;2023-01-08T03:10:25;10.23;;;4.77;;
22219;SDS011;11279;48.364;10.904;2023-01-08T03:11:30;7.85;;;4.68;;
22219;SDS011;11279;48.364;10.904;2023-01-08T03:12:42;8.18;;;4.60;;
22219;SDS011;11279;48.364;10.904;2023-01-08T03:13:59;6.78;;;4.60;;
22219;SDS011;11279;48.364;10.904;2023-01-08T03:15:05;7.22;;;4.78;;
22219;SDS011;11279;48.364;10.904;2023-01-08T03:16:08;9.20;;;4.55;;
22219;SDS011;11279;48.364;10.904;2023-01-08T03:18:20;9.50;;;4.82;;
22219;SDS011;11279;48.364;10.904;2023-01-08T03:19:25;9.48;;;5.03;;
22219;SDS011;11279;48.364;10.904;2023-01-08T03:20:28;8.32;;;4.65;;
22219;SDS011;11279;48.364;10.904;2023-01-08T03:21:30;10.05;;;4.88;;
22219;SDS011;11279;48.364;10.904;2023-01-08T03:22:30;8.53;;;4.90;;
22219;SDS011;11279;48.364;10.904;2023-01-08T03:23:32;8.38;;;4.90;;
22219;SDS011;11279;48.364;10.904;2023-01-08T03:24:34;9.20;;;5.03;;
22219;SDS011;11279;48.364;10.904;2023-01-08T03:25:38;8.88;;;4.85;;
22219;SDS011;11279;48.364;10.904;2023-01-08T03:26:41;8.10;;;4.75;;
22219;SDS011;11279;48.364;10.904;2023-01-08T03:27:43;9.55;;;4.93;;
22219;SDS011;11279;48.364;10.904;2023-01-08T03:28:47;8.30;;;4.80;;
22219;SDS011;11279;48.364;10.904;2023-01-08T03:29:51;8.50;;;4.50;;
22219;SDS011;11279;48.364;10.904;2023-01-08T03:30:53;8.90;;;4.78;;
22219;SDS011;11279;48.364;10.904;2023-01-08T03:31:57;10.50;;;5.60;;
22219;SDS011;11279;48.364;10.904;2023-01-08T03:33:01;9.35;;;4.90;;
22219;SDS011;11279;48.364;10.904;2023-01-08T03:34:03;8.50;;;4.90;;
22219;SDS011;11279;48.364;10.904;2023-01-08T03:35:04;10.50;;;5.17;;
22219;SDS011;11279;48.364;10.904;2023-01-08T03:36:06;9.05;;;5.35;;
22219;SDS011;11279;48.364;10.904;2023-01-08T03:37:08;10.93;;;5.60;;
22219;SDS011;11279;48.364;10.904;2023-01-08T03:38:12;9.93;;;5.07;;
22219;SDS011;11279;48.364;10.904;2023-01-08T03:39:17;8.48;;;4.70;;
22219;SDS011;11279;48.364;10.904;2023-01-08T03:40:22;10.52;;;5.40;;
22219;SDS011;11279;48.364;10.904;2023-01-08T03:41:25;9.57;;;5.15;;
22219;SDS011;11279;48.364;10.904;2023-01-08T03:42:27;8.35;;;4.53;;
22219;SDS011;11279;48.364;10.904;2023-01-08T03:43:30;8.98;;;4.97;;
22219;SDS011;11279;48.364;10.904;2023-01-08T03:44:30;8.43;;;4.67;;
22219;SDS011;11279;48.364;10.904;2023-01-08T03:45:31;7.97;;;4.80;;
22219;SDS011;11279;48.364;10.904;2023-01-08T03:46:32;10.70;;;4.65;;
22219;SDS011;11279;48.364;10.904;2023-01-08T03:47:36;8.80;;;5.00;;
22219;SDS011;11279;48.364;10.904;2023-01-08T03:48:38;7.88;;;4.82;;
22219;SDS011;11279;48.364;10.904;2023-01-08T03:49:40;10.02;;;5.00;;
22219;SDS011;11279;48.364;10.904;2023-01-08T03:50:41;8.25;;;4.82;;
22219;SDS011;11279;48.364;10.904;2023-01-08T03:51:42;10.07;;;5.20;;
22219;SDS011;11279;48.364;10.904;2023-01-08T03:52:43;11.43;;;4.95;;
22219;SDS011;11279;48.364;10.904;2023-01-08T03:53:44;8.23;;;4.83;;
22219;SDS011;11279;48.364;10.904;2023-01-08T03:54:46;10.73;;;4.75;;
22219;SDS011;11279;48.364;10.904;2023-01-08T03:55:46;8.93;;;4.73;;
22219;SDS011;11279;48.364;10.904;2023-01-08T03:56:47;10.47;;;4.37;;
22219;SDS011;11279;48.364;10.904;2023-01-08T03:57:47;7.80;;;4.63;;
22219;SDS011;11279;48.364;10.904;2023-01-08T03:58:47;9.67;;;4.90;;
22219;SDS011;11279;48.364;10.904;2023-01-08T03:59:48;8.17;;;4.60;;
22219;SDS011;11279;48.364;10.904;2023-01-08T04:00:48;8.67;;;4.87;;
22219;SDS011;11279;48.364;10.904;2023-01-08T04:01:49;9.63;;;4.90;;
22219;SDS011;11279;48.364;10.904;2023-01-08T04:02:49;10.83;;;4.27;;
22219;SDS011;11279;48.364;10.904;2023-01-08T04:03:49;7.80;;;4.20;;
22219;SDS011;11279;48.364;10.904;2023-01-08T04:04:50;8.27;;;4.33;;
22219;SDS011;11279;48.364;10.904;2023-01-08T04:05:50;7.60;;;4.70;;
22219;SDS011;11279;48.364;10.904;2023-01-08T04:06:51;7.80;;;4.57;;
22219;SDS011;11279;48.364;10.904;2023-01-08T04:07:55;9.00;;;4.72;;
22219;SDS011;11279;48.364;10.904;2023-01-08T04:08:56;9.45;;;4.97;;
22219;SDS011;11279;48.364;10.904;2023-01-08T04:09:56;7.93;;;4.60;;
22219;SDS011;11279;48.364;10.904;2023-01-08T04:10:57;8.13;;;4.60;;
22219;SDS011;11279;48.364;10.904;2023-01-08T04:11:57;10.47;;;5.00;;
22219;SDS011;11279;48.364;10.904;2023-01-08T04:12:57;7.70;;;4.43;;
22219;SDS011;11279;48.364;10.904;2023-01-08T04:13:58;8.90;;;4.07;;
22219;SDS011;11279;48.364;10.904;2023-01-08T04:14:58;9.20;;;4.50;;
22219;SDS011;11279;48.364;10.904;2023-01-08T04:15:59;8.47;;;4.43;;
22219;SDS011;11279;48.364;10.904;2023-01-08T04:16:59;8.80;;;4.53;;
22219;SDS011;11279;48.364;10.904;2023-01-08T04:18:00;8.47;;;4.40;;
22219;SDS011;11279;48.364;10.904;2023-01-08T04:19:00;7.53;;;4.07;;
22219;SDS011;11279;48.364;10.904;2023-01-08T04:20:00;7.80;;;4.30;;
22219;SDS011;11279;48.364;10.904;2023-01-08T04:21:01;7.00;;;4.20;;
22219;SDS011;11279;48.364;10.904;2023-01-08T04:22:01;8.70;;;4.33;;
22219;SDS011;11279;48.364;10.904;2023-01-08T04:23:02;8.33;;;4.57;;
22219;SDS011;11279;48.364;10.904;2023-01-08T04:24:02;7.60;;;4.23;;
22219;SDS011;11279;48.364;10.904;2023-01-08T04:25:03;7.80;;;3.97;;
22219;SDS011;11279;48.364;10.904;2023-01-08T04:26:04;6.97;;;3.70;;
22219;SDS011;11279;48.364;10.904;2023-01-08T04:27:05;8.95;;;4.05;;
22219;SDS011;11279;48.364;10.904;2023-01-08T04:28:06;6.43;;;4.30;;
22219;SDS011;11279;48.364;10.904;2023-01-08T04:29:06;5.97;;;3.97;;
22219;SDS011;11279;48.364;10.904;2023-01-08T04:30:07;7.20;;;4.30;;
22219;SDS011;11279;48.364;10.904;2023-01-08T04:31:08;8.25;;;4.38;;
22219;SDS011;11279;48.364;10.904;2023-01-08T04:32:08;7.97;;;4.30;;
22219;SDS011;11279;48.364;10.904;2023-01-08T04:33:09;9.47;;;4.33;;
22219;SDS011;11279;48.364;10.904;2023-01-08T04:34:09;9.23;;;3.77;;
22219;SDS011;11279;48.364;10.904;2023-01-08T04:35:10;6.27;;;3.97;;
22219;SDS011;11279;48.364;10.904;2023-01-08T04:36:10;7.43;;;4.07;;
22219;SDS011;11279;48.364;10.904;2023-01-08T04:37:11;7.90;;;4.20;;
22219;SDS011;11279;48.364;10.904;2023-01-08T04:38:11;6.57;;;4.10;;
22219;SDS011;11279;48.364;10.904;2023-01-08T04:39:11;8.70;;;4.13;;
22219;SDS011;11279;48.364;10.904;2023-01-08T04:40:12;7.13;;;4.33;;
22219;SDS011;11279;48.364;10.904;2023-01-08T04:41:12;7.67;;;4.03;;
22219;SDS011;11279;48.364;10.904;2023-01-08T04:42:13;9.40;;;4.37;;
22219;SDS011;11279;48.364;10.904;2023-01-08T04:43:13;6.90;;;4.10;;
22219;SDS011;11279;48.364;10.904;2023-01-08T04:44:13;7.83;;;4.37;;
22219;SDS011;11279;48.364;10.904;2023-01-08T04:45:14;6.80;;;4.27;;
22219;SDS011;11279;48.364;10.904;2023-01-08T04:46:14;7.70;;;3.90;;
22219;SDS011;11279;48.364;10.904;2023-01-08T04:47:15;7.27;;;3.90;;
22219;SDS011;11279;48.364;10.904;2023-01-08T04:48:15;6.87;;;3.60;;
22219;SDS011;11279;48.364;10.904;2023-01-08T04:49:15;9.17;;;4.83;;
22219;SDS011;11279;48.364;10.904;2023-01-08T04:50:16;8.03;;;4.27;;
22219;SDS011;11279;48.364;10.904;2023-01-08T04:51:16;7.87;;;4.17;;
22219;SDS011;11279;48.364;10.904;2023-01-08T04:52:17;8.77;;;3.93;;
22219;SDS011;11279;48.364;10.904;2023-01-08T04:53:17;6.83;;;4.07;;
22219;SDS011;11279;48.364;10.904;2023-01-08T04:54:18;7.53;;;4.00;;
22219;SDS011;11279;48.364;10.904;2023-01-08T04:55:18;7.30;;;3.93;;
22219;SDS011;11279;48.364;10.904;2023-01-08T04:56:19;10.07;;;4.43;;
22219;SDS011;11279;48.364;10.904;2023-01-08T04:57:19;8.10;;;4.50;;
22219;SDS011;11279;48.364;10.904;2023-01-08T04:58:20;8.33;;;4.07;;
22219;SDS011;11279;48.364;10.904;2023-01-08T04:59:20;8.97;;;4.20;;
22219;SDS011;11279;48.364;10.904;2023-01-08T05:00:21;7.00;;;4.50;;
22219;SDS011;11279;48.364;10.904;2023-01-08T05:01:22;10.07;;;4.43;;
22219;SDS011;11279;48.364;10.904;2023-01-08T05:02:23;7.65;;;4.00;;
22219;SDS011;11279;48.364;10.904;2023-01-08T05:03:24;8.47;;;4.13;;
22219;SDS011;11279;48.364;10.904;2023-01-08T05:04:24;8.33;;;4.10;;
22219;SDS011;11279;48.364;10.904;2023-01-08T05:05:25;11.30;;;4.33;;
22219;SDS011;11279;48.364;10.904;2023-01-08T05:06:26;8.53;;;4.67;;
22219;SDS011;11279;48.364;10.904;2023-01-08T05:07:27;8.20;;;4.20;;
22219;SDS011;11279;48.364;10.904;2023-01-08T05:08:28;11.53;;;4.60;;
22219;SDS011;11279;48.364;10.904;2023-01-08T05:09:28;7.63;;;4.23;;
22219;SDS011;11279;48.364;10.904;2023-01-08T05:10:29;6.70;;;3.87;;
22219;SDS011;11279;48.364;10.904;2023-01-08T05:11:29;7.57;;;4.03;;
22219;SDS011;11279;48.364;10.904;2023-01-08T05:12:29;9.60;;;4.33;;
22219;SDS011;11279;48.364;10.904;2023-01-08T05:13:30;8.30;;;4.30;;
22219;SDS011;11279;48.364;10.904;2023-01-08T05:14:30;9.10;;;4.47;;
22219;SDS011;11279;48.364;10.904;2023-01-08T05:15:31;8.67;;;4.20;;
22219;SDS011;11279;48.364;10.904;2023-01-08T05:16:32;8.50;;;4.43;;
22219;SDS011;11279;48.364;10.904;2023-01-08T05:17:32;8.93;;;4.40;;
22219;SDS011;11279;48.364;10.904;2023-01-08T05:18:33;8.70;;;3.90;;
22219;SDS011;11279;48.364;10.904;2023-01-08T05:19:33;6.90;;;3.83;;
22219;SDS011;11279;48.364;10.904;2023-01-08T05:20:33;7.20;;;4.00;;
22219;SDS011;11279;48.364;10.904;2023-01-08T05:21:34;7.67;;;4.20;;
22219;SDS011;11279;48.364;10.904;2023-01-08T05:22:34;9.87;;;4.60;;
22219;SDS011;11279;48.364;10.904;2023-01-08T05:23:35;7.70;;;4.60;;
22219;SDS011;11279;48.364;10.904;2023-01-08T05:24:35;7.20;;;3.80;;
22219;SDS011;11279;48.364;10.904;2023-01-08T05:25:36;7.53;;;4.00;;
22219;SDS011;11279;48.364;10.904;2023-01-08T05:26:36;7.27;;;4.17;;
22219;SDS011;11279;48.364;10.904;2023-01-08T05:27:36;8.20;;;4.27;;
22219;SDS011;11279;48.364;10.904;2023-01-08T05:28:37;7.97;;;4.20;;
22219;SDS011;11279;48.364;10.904;2023-01-08T05:29:37;7.97;;;4.30;;
22219;SDS011;11279;48.364;10.904;2023-01-08T05:30:38;7.10;;;4.03;;
22219;SDS011;11279;48.364;10.904;2023-01-08T05:31:38;9.67;;;4.33;;
22219;SDS011;11279;48.364;10.904;2023-01-08T05:32:38;8.57;;;4.40;;
22219;SDS011;11279;48.364;10.904;2023-01-08T05:33:39;8.87;;;4.37;;
22219;SDS011;11279;48.364;10.904;2023-01-08T05:34:39;10.20;;;4.17;;
22219;SDS011;11279;48.364;10.904;2023-01-08T05:35:40;9.27;;;4.17;;
22219;SDS011;11279;48.364;10.904;2023-01-08T05:36:40;8.00;;;4.53;;
22219;SDS011;11279;48.364;10.904;2023-01-08T05:37:42;9.55;;;4.20;;
22219;SDS011;11279;48.364;10.904;2023-01-08T05:38:42;7.63;;;3.73;;
22219;SDS011;11279;48.364;10.904;2023-01-08T05:39:43;9.70;;;4.20;;
22219;SDS011;11279;48.364;10.904;2023-01-08T05:40:43;6.47;;;3.67;;
22219;SDS011;11279;48.364;10.904;2023-01-08T05:41:44;7.43;;;3.73;;
22219;SDS011;11279;48.364;10.904;2023-01-08T05:42:44;11.57;;;3.97;;
22219;SDS011;11279;48.364;10.904;2023-01-08T05:43:44;6.97;;;3.83;;
22219;SDS011;11279;48.364;10.904;2023-01-08T05:44:45;8.70;;;3.97;;
22219;SDS011;11279;48.364;10.904;2023-01-08T05:45:45;7.23;;;4.00;;
22219;SDS011;11279;48.364;10.904;2023-01-08T05:46:46;7.43;;;3.90;;
22219;SDS011;11279;48.364;10.904;2023-01-08T05:47:46;6.70;;;4.30;;
22219;SDS011;11279;48.364;10.904;2023-01-08T05:48:46;7.93;;;4.10;;
22219;SDS011;11279;48.364;10.904;2023-01-08T05:49:47;8.17;;;4.30;;
22219;SDS011;11279;48.364;10.904;2023-01-08T05:50:48;7.57;;;3.77;;
22219;SDS011;11279;48.364;10.904;2023-01-08T05:51:49;9.57;;;4.05;;
22219;SDS011;11279;48.364;10.904;2023-01-08T05:52:50;8.23;;;4.40;;
22219;SDS011;11279;48.364;10.904;2023-01-08T05:53:50;9.37;;;4.17;;
22219;SDS011;11279;48.364;10.904;2023-01-08T05:54:50;8.43;;;4.50;;
22219;SDS011;11279;48.364;10.904;2023-01-08T05:55:51;7.93;;;4.27;;
22219;SDS011;11279;48.364;10.904;2023-01-08T05:56:51;7.17;;;4.00;;
22219;SDS011;11279;48.364;10.904;2023-01-08T05:57:52;7.27;;;4.23;;
22219;SDS011;11279;48.364;10.904;2023-01-08T05:58:52;6.07;;;3.50;;
22219;SDS011;11279;48.364;10.904;2023-01-08T05:59:54;7.78;;;4.00;;
22219;SDS011;11279;48.364;10.904;2023-01-08T06:00:59;7.90;;;3.97;;
22219;SDS011;11279;48.364;10.904;2023-01-08T06:02:09;6.82;;;3.85;;
22219;SDS011;11279;48.364;10.904;2023-01-08T06:03:09;7.97;;;3.87;;
22219;SDS011;11279;48.364;10.904;2023-01-08T06:04:10;7.20;;;3.70;;
22219;SDS011;11279;48.364;10.904;2023-01-08T06:05:10;7.00;;;4.40;;
22219;SDS011;11279;48.364;10.904;2023-01-08T06:06:11;6.63;;;3.67;;
22219;SDS011;11279;48.364;10.904;2023-01-08T06:07:11;8.00;;;4.10;;
22219;SDS011;11279;48.364;10.904;2023-01-08T06:08:13;8.83;;;4.33;;
22219;SDS011;11279;48.364;10.904;2023-01-08T06:09:14;6.00;;;3.42;;
22219;SDS011;11279;48.364;10.904;2023-01-08T06:10:15;7.20;;;4.17;;
22219;SDS011;11279;48.364;10.904;2023-01-08T06:11:15;6.60;;;3.73;;
22219;SDS011;11279;48.364;10.904;2023-01-08T06:12:16;8.10;;;3.97;;
22219;SDS011;11279;48.364;10.904;2023-01-08T06:13:17;7.70;;;4.10;;